sensor_id;sensor_type;location;lat;lon;timestamp;P1;durP1;ratioP1;P2;durP2;ratioP2
26113;SDS011;13966;48.828;9.064;2022-07-06T00:02:11;4.60;;;2.15;;
26113;SDS011;13966;48.828;9.064;2022-07-06T00:04:37;5.82;;;2.22;;
26113;SDS011;13966;48.828;9.064;2022-07-06T00:07:03;7.40;;;2.63;;
26113;SDS011;13966;48.828;9.064;2022-07-06T00:09:29;7.07;;;2.08;;
26113;SDS011;13966;48.828;9.064;2022-07-06T00:11:55;9.05;;;2.38;;
26113;SDS011;13966;48.828;9.064;2022-07-06T00:14:21;8.93;;;1.92;;
26113;SDS011;13966;48.828;9.064;2022-07-06T00:16:47;13.77;;;3.22;;
26113;SDS011;13966;48.828;9.064;2022-07-06T00:19:13;7.75;;;2.53;;
26113;SDS011;13966;48.828;9.064;2022-07-06T00:21:39;6.65;;;2.92;;
26113;SDS011;13966;48.828;9.064;2022-07-06T00:24:05;4.53;;;2.70;;
26113;SDS011;13966;48.828;9.064;2022-07-06T00:26:32;5.43;;;2.30;;
26113;SDS011;13966;48.828;9.064;2022-07-06T00:28:58;9.52;;;3.08;;
26113;SDS011;13966;48.828;9.064;2022-07-06T00:31:24;8.93;;;2.85;;
26113;SDS011;13966;48.828;9.064;2022-07-06T00:33:50;5.57;;;2.80;;
26113;SDS011;13966;48.828;9.064;2022-07-06T00:36:16;7.03;;;2.53;;
26113;SDS011;13966;48.828;9.064;2022-07-06T00:38:42;7.15;;;2.85;;
26113;SDS011;13966;48.828;9.064;2022-07-06T00:41:08;6.72;;;2.60;;
26113;SDS011;13966;48.828;9.064;2022-07-06T00:43:51;7.18;;;2.72;;
26113;SDS011;13966;48.828;9.064;2022-07-06T00:46:17;9.25;;;2.38;;
26113;SDS011;13966;48.828;9.064;2022-07-06T00:48:43;7.15;;;2.70;;
26113;SDS011;13966;48.828;9.064;2022-07-06T00:51:10;5.05;;;2.40;;
26113;SDS011;13966;48.828;9.064;2022-07-06T00:53:36;6.35;;;2.35;;
26113;SDS011;13966;48.828;9.064;2022-07-06T00:56:02;3.58;;;2.22;;
26113;SDS011;13966;48.828;9.064;2022-07-06T00:58:29;7.15;;;2.80;;
26113;SDS011;13966;48.828;9.064;2022-07-06T01:00:55;3.88;;;2.20;;
26113;SDS011;13966;48.828;9.064;2022-07-06T01:03:21;5.65;;;2.55;;
26113;SDS011;13966;48.828;9.064;2022-07-06T01:05:47;5.07;;;2.00;;
26113;SDS011;13966;48.828;9.064;2022-07-06T01:08:13;6.35;;;2.38;;
26113;SDS011;13966;48.828;9.064;2022-07-06T01:10:40;5.97;;;2.40;;
26113;SDS011;13966;48.828;9.064;2022-07-06T01:13:06;3.95;;;2.80;;
26113;SDS011;13966;48.828;9.064;2022-07-06T01:15:32;12.77;;;2.75;;
26113;SDS011;13966;48.828;9.064;2022-07-06T01:17:58;8.35;;;2.90;;
26113;SDS011;13966;48.828;9.064;2022-07-06T01:20:25;6.35;;;2.40;;
26113;SDS011;13966;48.828;9.064;2022-07-06T01:22:52;4.30;;;2.33;;
26113;SDS011;13966;48.828;9.064;2022-07-06T01:25:18;2.33;;;1.80;;
26113;SDS011;13966;48.828;9.064;2022-07-06T01:27:45;6.63;;;1.92;;
26113;SDS011;13966;48.828;9.064;2022-07-06T01:30:12;3.53;;;1.67;;
26113;SDS011;13966;48.828;9.064;2022-07-06T01:32:38;3.83;;;2.40;;
26113;SDS011;13966;48.828;9.064;2022-07-06T01:35:05;4.35;;;2.10;;
26113;SDS011;13966;48.828;9.064;2022-07-06T01:37:31;4.35;;;2.10;;
26113;SDS011;13966;48.828;9.064;2022-07-06T01:39:58;5.20;;;2.10;;
26113;SDS011;13966;48.828;9.064;2022-07-06T01:42:25;4.55;;;2.10;;
26113;SDS011;13966;48.828;9.064;2022-07-06T01:44:51;3.55;;;2.00;;
26113;SDS011;13966;48.828;9.064;2022-07-06T01:47:17;4.82;;;2.25;;
26113;SDS011;13966;48.828;9.064;2022-07-06T01:49:43;4.10;;;2.00;;
26113;SDS011;13966;48.828;9.064;2022-07-06T01:52:09;2.45;;;1.98;;
26113;SDS011;13966;48.828;9.064;2022-07-06T01:54:35;6.28;;;2.10;;
26113;SDS011;13966;48.828;9.064;2022-07-06T01:57:01;3.55;;;1.80;;
26113;SDS011;13966;48.828;9.064;2022-07-06T01:59:27;4.40;;;2.17;;
26113;SDS011;13966;48.828;9.064;2022-07-06T02:01:53;3.28;;;1.90;;
26113;SDS011;13966;48.828;9.064;2022-07-06T02:04:19;3.30;;;1.73;;
26113;SDS011;13966;48.828;9.064;2022-07-06T02:06:46;3.30;;;2.03;;
26113;SDS011;13966;48.828;9.064;2022-07-06T02:09:12;5.35;;;2.08;;
26113;SDS011;13966;48.828;9.064;2022-07-06T02:11:38;2.50;;;1.75;;
26113;SDS011;13966;48.828;9.064;2022-07-06T02:14:04;4.68;;;1.85;;
26113;SDS011;13966;48.828;9.064;2022-07-06T02:16:30;4.32;;;1.95;;
26113;SDS011;13966;48.828;9.064;2022-07-06T02:18:56;3.33;;;1.83;;
26113;SDS011;13966;48.828;9.064;2022-07-06T02:21:22;7.75;;;2.10;;
26113;SDS011;13966;48.828;9.064;2022-07-06T02:23:48;4.15;;;1.85;;
26113;SDS011;13966;48.828;9.064;2022-07-06T02:26:14;5.22;;;2.08;;
26113;SDS011;13966;48.828;9.064;2022-07-06T02:28:40;4.20;;;2.22;;
26113;SDS011;13966;48.828;9.064;2022-07-06T02:31:06;5.38;;;1.95;;
26113;SDS011;13966;48.828;9.064;2022-07-06T02:33:32;4.10;;;2.00;;
26113;SDS011;13966;48.828;9.064;2022-07-06T02:35:59;3.90;;;2.03;;
26113;SDS011;13966;48.828;9.064;2022-07-06T02:38:25;2.90;;;2.10;;
26113;SDS011;13966;48.828;9.064;2022-07-06T02:40:51;3.80;;;2.30;;
26113;SDS011;13966;48.828;9.064;2022-07-06T02:43:17;2.28;;;2.00;;
26113;SDS011;13966;48.828;9.064;2022-07-06T02:45:43;3.80;;;2.00;;
26113;SDS011;13966;48.828;9.064;2022-07-06T02:48:09;4.25;;;2.40;;
26113;SDS011;13966;48.828;9.064;2022-07-06T02:50:35;5.82;;;2.45;;
26113;SDS011;13966;48.828;9.064;2022-07-06T02:53:01;3.30;;;1.95;;
26113;SDS011;13966;48.828;9.064;2022-07-06T02:55:27;5.32;;;2.63;;
26113;SDS011;13966;48.828;9.064;2022-07-06T02:57:53;6.65;;;2.38;;
26113;SDS011;13966;48.828;9.064;2022-07-06T03:00:19;12.85;;;2.60;;
26113;SDS011;13966;48.828;9.064;2022-07-06T03:02:45;4.13;;;2.25;;
26113;SDS011;13966;48.828;9.064;2022-07-06T03:05:11;6.35;;;2.78;;
26113;SDS011;13966;48.828;9.064;2022-07-06T03:07:37;8.52;;;2.47;;
26113;SDS011;13966;48.828;9.064;2022-07-06T03:10:03;6.68;;;2.80;;
26113;SDS011;13966;48.828;9.064;2022-07-06T03:12:29;5.07;;;2.63;;
26113;SDS011;13966;48.828;9.064;2022-07-06T03:14:55;2.60;;;2.10;;
26113;SDS011;13966;48.828;9.064;2022-07-06T03:17:21;4.28;;;2.70;;
26113;SDS011;13966;48.828;9.064;2022-07-06T03:19:47;5.03;;;3.30;;
26113;SDS011;13966;48.828;9.064;2022-07-06T03:22:14;3.83;;;2.97;;
26113;SDS011;13966;48.828;9.064;2022-07-06T03:24:40;5.03;;;3.10;;
26113;SDS011;13966;48.828;9.064;2022-07-06T03:27:06;8.55;;;3.28;;
26113;SDS011;13966;48.828;9.064;2022-07-06T03:29:32;5.03;;;2.72;;
26113;SDS011;13966;48.828;9.064;2022-07-06T03:31:58;6.30;;;3.03;;
26113;SDS011;13966;48.828;9.064;2022-07-06T03:34:24;8.57;;;3.35;;
26113;SDS011;13966;48.828;9.064;2022-07-06T03:36:50;6.00;;;2.80;;
26113;SDS011;13966;48.828;9.064;2022-07-06T03:39:16;5.22;;;2.80;;
26113;SDS011;13966;48.828;9.064;2022-07-06T03:41:42;6.20;;;3.33;;
26113;SDS011;13966;48.828;9.064;2022-07-06T03:44:08;7.60;;;3.20;;
26113;SDS011;13966;48.828;9.064;2022-07-06T03:46:34;6.10;;;3.08;;
26113;SDS011;13966;48.828;9.064;2022-07-06T03:49:00;8.48;;;2.97;;
26113;SDS011;13966;48.828;9.064;2022-07-06T03:51:26;5.35;;;3.28;;
26113;SDS011;13966;48.828;9.064;2022-07-06T03:53:52;6.00;;;2.97;;
26113;SDS011;13966;48.828;9.064;2022-07-06T03:56:18;8.70;;;3.28;;
26113;SDS011;13966;48.828;9.064;2022-07-06T03:58:54;7.88;;;3.40;;
26113;SDS011;13966;48.828;9.064;2022-07-06T04:01:20;9.32;;;3.22;;
26113;SDS011;13966;48.828;9.064;2022-07-06T04:03:46;6.32;;;3.58;;
26113;SDS011;13966;48.828;9.064;2022-07-06T04:06:13;5.35;;;3.05;;
26113;SDS011;13966;48.828;9.064;2022-07-06T04:08:39;7.18;;;3.65;;
26113;SDS011;13966;48.828;9.064;2022-07-06T04:11:05;7.88;;;3.25;;
26113;SDS011;13966;48.828;9.064;2022-07-06T04:13:31;9.50;;;3.80;;
26113;SDS011;13966;48.828;9.064;2022-07-06T04:15:57;5.78;;;3.50;;
26113;SDS011;13966;48.828;9.064;2022-07-06T04:18:23;6.55;;;3.47;;
26113;SDS011;13966;48.828;9.064;2022-07-06T04:20:49;5.88;;;3.65;;
26113;SDS011;13966;48.828;9.064;2022-07-06T04:23:15;9.73;;;3.63;;
26113;SDS011;13966;48.828;9.064;2022-07-06T04:25:41;6.68;;;3.70;;
26113;SDS011;13966;48.828;9.064;2022-07-06T04:28:07;4.72;;;3.47;;
26113;SDS011;13966;48.828;9.064;2022-07-06T04:30:33;7.03;;;3.83;;
26113;SDS011;13966;48.828;9.064;2022-07-06T04:33:00;7.70;;;3.70;;
26113;SDS011;13966;48.828;9.064;2022-07-06T04:35:26;7.25;;;3.10;;
26113;SDS011;13966;48.828;9.064;2022-07-06T04:37:52;6.32;;;3.28;;
26113;SDS011;13966;48.828;9.064;2022-07-06T04:40:18;5.80;;;3.25;;
26113;SDS011;13966;48.828;9.064;2022-07-06T04:42:44;8.80;;;3.42;;
26113;SDS011;13966;48.828;9.064;2022-07-06T04:45:10;4.50;;;3.20;;
26113;SDS011;13966;48.828;9.064;2022-07-06T04:47:36;7.45;;;3.53;;
26113;SDS011;13966;48.828;9.064;2022-07-06T04:50:03;6.07;;;3.60;;
26113;SDS011;13966;48.828;9.064;2022-07-06T04:52:29;6.88;;;4.13;;
26113;SDS011;13966;48.828;9.064;2022-07-06T04:54:55;5.78;;;3.20;;
26113;SDS011;13966;48.828;9.064;2022-07-06T04:57:21;6.97;;;3.55;;
26113;SDS011;13966;48.828;9.064;2022-07-06T04:59:47;4.93;;;3.60;;
26113;SDS011;13966;48.828;9.064;2022-07-06T05:02:13;4.05;;;3.60;;
26113;SDS011;13966;48.828;9.064;2022-07-06T05:04:39;7.38;;;3.95;;
26113;SDS011;13966;48.828;9.064;2022-07-06T05:07:06;6.38;;;3.65;;
26113;SDS011;13966;48.828;9.064;2022-07-06T05:09:32;5.95;;;3.45;;
26113;SDS011;13966;48.828;9.064;2022-07-06T05:11:58;6.18;;;3.75;;
26113;SDS011;13966;48.828;9.064;2022-07-06T05:14:24;10.82;;;4.28;;
26113;SDS011;13966;48.828;9.064;2022-07-06T05:16:50;8.13;;;4.53;;
26113;SDS011;13966;48.828;9.064;2022-07-06T05:19:16;5.70;;;3.40;;
26113;SDS011;13966;48.828;9.064;2022-07-06T05:21:42;5.32;;;3.40;;
26113;SDS011;13966;48.828;9.064;2022-07-06T05:24:08;5.43;;;3.05;;
26113;SDS011;13966;48.828;9.064;2022-07-06T05:26:34;9.35;;;3.28;;
26113;SDS011;13966;48.828;9.064;2022-07-06T05:29:00;8.07;;;3.20;;
26113;SDS011;13966;48.828;9.064;2022-07-06T05:31:26;11.00;;;3.50;;
26113;SDS011;13966;48.828;9.064;2022-07-06T05:33:52;6.32;;;3.00;;
26113;SDS011;13966;48.828;9.064;2022-07-06T05:36:19;6.97;;;3.25;;
26113;SDS011;13966;48.828;9.064;2022-07-06T05:38:45;6.93;;;3.13;;
26113;SDS011;13966;48.828;9.064;2022-07-06T05:41:11;5.65;;;2.90;;
26113;SDS011;13966;48.828;9.064;2022-07-06T05:43:37;6.43;;;3.25;;
26113;SDS011;13966;48.828;9.064;2022-07-06T05:46:03;5.65;;;3.53;;
26113;SDS011;13966;48.828;9.064;2022-07-06T05:48:29;7.82;;;3.00;;
26113;SDS011;13966;48.828;9.064;2022-07-06T05:51:14;6.07;;;2.70;;
26113;SDS011;13966;48.828;9.064;2022-07-06T05:53:40;10.32;;;3.50;;
26113;SDS011;13966;48.828;9.064;2022-07-06T05:56:06;3.80;;;2.80;;
26113;SDS011;13966;48.828;9.064;2022-07-06T05:58:32;4.22;;;2.63;;
26113;SDS011;13966;48.828;9.064;2022-07-06T06:00:58;8.57;;;3.00;;
26113;SDS011;13966;48.828;9.064;2022-07-06T06:03:24;5.82;;;2.83;;
26113;SDS011;13966;48.828;9.064;2022-07-06T06:05:50;6.53;;;3.20;;
26113;SDS011;13966;48.828;9.064;2022-07-06T06:08:17;6.85;;;2.75;;
26113;SDS011;13966;48.828;9.064;2022-07-06T06:10:43;6.03;;;3.00;;
26113;SDS011;13966;48.828;9.064;2022-07-06T06:13:09;7.95;;;2.90;;
26113;SDS011;13966;48.828;9.064;2022-07-06T06:15:35;4.43;;;2.17;;
26113;SDS011;13966;48.828;9.064;2022-07-06T06:18:01;4.55;;;2.58;;
26113;SDS011;13966;48.828;9.064;2022-07-06T06:20:28;5.68;;;3.30;;
26113;SDS011;13966;48.828;9.064;2022-07-06T06:22:56;14.27;;;2.97;;
26113;SDS011;13966;48.828;9.064;2022-07-06T06:25:32;4.85;;;2.70;;
26113;SDS011;13966;48.828;9.064;2022-07-06T06:27:58;7.63;;;2.97;;
26113;SDS011;13966;48.828;9.064;2022-07-06T06:30:24;7.85;;;2.75;;
26113;SDS011;13966;48.828;9.064;2022-07-06T06:32:51;4.72;;;2.47;;
26113;SDS011;13966;48.828;9.064;2022-07-06T06:35:17;6.63;;;2.60;;
26113;SDS011;13966;48.828;9.064;2022-07-06T06:37:43;5.93;;;2.25;;
26113;SDS011;13966;48.828;9.064;2022-07-06T06:40:10;4.95;;;2.22;;
26113;SDS011;13966;48.828;9.064;2022-07-06T06:42:36;4.82;;;2.70;;
26113;SDS011;13966;48.828;9.064;2022-07-06T06:45:03;4.00;;;2.67;;
26113;SDS011;13966;48.828;9.064;2022-07-06T06:47:29;4.60;;;2.65;;
26113;SDS011;13966;48.828;9.064;2022-07-06T06:49:55;5.65;;;2.20;;
26113;SDS011;13966;48.828;9.064;2022-07-06T06:52:21;8.13;;;2.58;;
26113;SDS011;13966;48.828;9.064;2022-07-06T06:54:47;6.82;;;2.50;;
26113;SDS011;13966;48.828;9.064;2022-07-06T06:57:13;4.32;;;2.22;;
26113;SDS011;13966;48.828;9.064;2022-07-06T06:59:39;7.32;;;2.60;;
26113;SDS011;13966;48.828;9.064;2022-07-06T07:02:05;6.47;;;2.80;;
26113;SDS011;13966;48.828;9.064;2022-07-06T07:04:31;4.75;;;2.25;;
26113;SDS011;13966;48.828;9.064;2022-07-06T07:06:58;5.45;;;2.30;;
26113;SDS011;13966;48.828;9.064;2022-07-06T07:09:24;4.10;;;2.20;;
26113;SDS011;13966;48.828;9.064;2022-07-06T07:11:50;9.27;;;2.20;;
26113;SDS011;13966;48.828;9.064;2022-07-06T07:14:16;6.15;;;2.28;;
26113;SDS011;13966;48.828;9.064;2022-07-06T07:16:42;4.35;;;2.40;;
26113;SDS011;13966;48.828;9.064;2022-07-06T07:19:08;8.15;;;2.78;;
26113;SDS011;13966;48.828;9.064;2022-07-06T07:21:34;3.78;;;2.50;;
26113;SDS011;13966;48.828;9.064;2022-07-06T07:24:00;5.68;;;2.13;;
26113;SDS011;13966;48.828;9.064;2022-07-06T07:26:26;6.53;;;2.40;;
26113;SDS011;13966;48.828;9.064;2022-07-06T07:28:52;3.75;;;2.35;;
26113;SDS011;13966;48.828;9.064;2022-07-06T07:31:18;4.18;;;2.38;;
26113;SDS011;13966;48.828;9.064;2022-07-06T07:33:44;6.43;;;2.38;;
26113;SDS011;13966;48.828;9.064;2022-07-06T07:36:10;3.53;;;2.05;;
26113;SDS011;13966;48.828;9.064;2022-07-06T07:38:36;4.63;;;2.40;;
26113;SDS011;13966;48.828;9.064;2022-07-06T07:41:02;6.03;;;2.40;;
26113;SDS011;13966;48.828;9.064;2022-07-06T07:43:30;5.68;;;2.15;;
26113;SDS011;13966;48.828;9.064;2022-07-06T07:45:56;6.40;;;2.42;;
26113;SDS011;13966;48.828;9.064;2022-07-06T07:48:22;5.80;;;2.30;;
26113;SDS011;13966;48.828;9.064;2022-07-06T07:50:48;6.25;;;2.33;;
26113;SDS011;13966;48.828;9.064;2022-07-06T07:53:14;5.35;;;2.60;;
26113;SDS011;13966;48.828;9.064;2022-07-06T07:55:40;4.57;;;2.25;;
26113;SDS011;13966;48.828;9.064;2022-07-06T07:58:06;3.92;;;2.50;;
26113;SDS011;13966;48.828;9.064;2022-07-06T08:00:32;10.02;;;2.75;;
26113;SDS011;13966;48.828;9.064;2022-07-06T08:02:59;3.97;;;2.10;;
26113;SDS011;13966;48.828;9.064;2022-07-06T08:05:25;6.75;;;2.10;;
26113;SDS011;13966;48.828;9.064;2022-07-06T08:07:51;6.38;;;2.63;;
26113;SDS011;13966;48.828;9.064;2022-07-06T08:10:18;6.38;;;2.47;;
26113;SDS011;13966;48.828;9.064;2022-07-06T08:12:44;3.67;;;2.10;;
26113;SDS011;13966;48.828;9.064;2022-07-06T08:15:10;8.07;;;2.63;;
26113;SDS011;13966;48.828;9.064;2022-07-06T08:17:36;7.63;;;2.38;;
26113;SDS011;13966;48.828;9.064;2022-07-06T08:20:04;4.95;;;2.35;;
26113;SDS011;13966;48.828;9.064;2022-07-06T08:22:30;7.55;;;2.28;;
26113;SDS011;13966;48.828;9.064;2022-07-06T08:24:56;4.40;;;2.30;;
26113;SDS011;13966;48.828;9.064;2022-07-06T08:27:23;7.28;;;2.72;;
26113;SDS011;13966;48.828;9.064;2022-07-06T08:29:49;5.57;;;1.85;;
26113;SDS011;13966;48.828;9.064;2022-07-06T08:32:15;3.47;;;2.00;;
26113;SDS011;13966;48.828;9.064;2022-07-06T08:34:41;3.90;;;1.80;;
26113;SDS011;13966;48.828;9.064;2022-07-06T08:37:09;5.50;;;2.42;;
26113;SDS011;13966;48.828;9.064;2022-07-06T08:39:35;5.05;;;2.33;;
26113;SDS011;13966;48.828;9.064;2022-07-06T08:42:01;8.85;;;2.10;;
26113;SDS011;13966;48.828;9.064;2022-07-06T08:44:27;6.60;;;2.08;;
26113;SDS011;13966;48.828;9.064;2022-07-06T08:46:55;6.93;;;2.70;;
26113;SDS011;13966;48.828;9.064;2022-07-06T08:49:23;4.15;;;1.95;;
26113;SDS011;13966;48.828;9.064;2022-07-06T08:51:50;5.10;;;2.35;;
26113;SDS011;13966;48.828;9.064;2022-07-06T08:54:17;4.20;;;2.47;;
26113;SDS011;13966;48.828;9.064;2022-07-06T08:56:44;5.32;;;2.55;;
26113;SDS011;13966;48.828;9.064;2022-07-06T08:59:11;8.50;;;2.78;;
26113;SDS011;13966;48.828;9.064;2022-07-06T09:01:38;6.10;;;1.92;;
26113;SDS011;13966;48.828;9.064;2022-07-06T09:04:07;6.30;;;2.53;;
26113;SDS011;13966;48.828;9.064;2022-07-06T09:06:34;6.13;;;2.42;;
26113;SDS011;13966;48.828;9.064;2022-07-06T09:09:02;3.50;;;2.08;;
26113;SDS011;13966;48.828;9.064;2022-07-06T09:11:31;6.60;;;2.25;;
26113;SDS011;13966;48.828;9.064;2022-07-06T09:13:57;8.30;;;2.53;;
26113;SDS011;13966;48.828;9.064;2022-07-06T09:16:27;5.00;;;2.58;;
26113;SDS011;13966;48.828;9.064;2022-07-06T09:18:57;6.15;;;2.60;;
26113;SDS011;13966;48.828;9.064;2022-07-06T09:21:30;4.70;;;2.55;;
26113;SDS011;13966;48.828;9.064;2022-07-06T09:23:57;4.68;;;2.42;;
26113;SDS011;13966;48.828;9.064;2022-07-06T09:26:24;3.85;;;2.10;;
26113;SDS011;13966;48.828;9.064;2022-07-06T09:28:50;4.55;;;2.13;;
26113;SDS011;13966;48.828;9.064;2022-07-06T09:31:16;8.52;;;2.58;;
26113;SDS011;13966;48.828;9.064;2022-07-06T09:34:02;6.72;;;2.50;;
26113;SDS011;13966;48.828;9.064;2022-07-06T09:36:37;5.63;;;2.53;;
26113;SDS011;13966;48.828;9.064;2022-07-06T09:41:41;7.22;;;2.58;;
26113;SDS011;13966;48.828;9.064;2022-07-06T09:44:09;4.03;;;2.40;;
26113;SDS011;13966;48.828;9.064;2022-07-06T09:46:42;4.25;;;2.15;;
26113;SDS011;13966;48.828;9.064;2022-07-06T09:49:08;7.18;;;2.70;;
26113;SDS011;13966;48.828;9.064;2022-07-06T09:51:38;5.22;;;2.35;;
26113;SDS011;13966;48.828;9.064;2022-07-06T09:54:07;5.28;;;2.45;;
26113;SDS011;13966;48.828;9.064;2022-07-06T09:56:37;6.35;;;2.40;;
26113;SDS011;13966;48.828;9.064;2022-07-06T10:01:36;4.40;;;2.13;;
26113;SDS011;13966;48.828;9.064;2022-07-06T10:04:03;6.65;;;2.20;;
26113;SDS011;13966;48.828;9.064;2022-07-06T10:06:29;3.85;;;2.42;;
26113;SDS011;13966;48.828;9.064;2022-07-06T10:08:55;6.65;;;2.33;;
26113;SDS011;13966;48.828;9.064;2022-07-06T10:11:23;6.65;;;2.78;;
26113;SDS011;13966;48.828;9.064;2022-07-06T10:13:50;5.85;;;2.30;;
26113;SDS011;13966;48.828;9.064;2022-07-06T10:16:18;3.35;;;2.55;;
26113;SDS011;13966;48.828;9.064;2022-07-06T10:18:44;6.75;;;2.25;;
26113;SDS011;13966;48.828;9.064;2022-07-06T10:21:10;3.35;;;2.10;;
26113;SDS011;13966;48.828;9.064;2022-07-06T10:23:36;5.15;;;2.00;;
26113;SDS011;13966;48.828;9.064;2022-07-06T10:26:04;3.85;;;1.75;;
26113;SDS011;13966;48.828;9.064;2022-07-06T10:28:31;3.83;;;2.17;;
26113;SDS011;13966;48.828;9.064;2022-07-06T10:30:57;5.18;;;2.40;;
26113;SDS011;13966;48.828;9.064;2022-07-06T10:33:23;5.07;;;2.58;;
26113;SDS011;13966;48.828;9.064;2022-07-06T10:35:50;5.15;;;2.22;;
26113;SDS011;13966;48.828;9.064;2022-07-06T10:38:16;6.35;;;3.05;;
26113;SDS011;13966;48.828;9.064;2022-07-06T10:40:42;11.65;;;2.85;;
26113;SDS011;13966;48.828;9.064;2022-07-06T10:43:33;4.47;;;2.60;;
26113;SDS011;13966;48.828;9.064;2022-07-06T10:46:04;5.63;;;2.58;;
26113;SDS011;13966;48.828;9.064;2022-07-06T10:48:34;5.35;;;2.75;;
26113;SDS011;13966;48.828;9.064;2022-07-06T10:51:00;6.30;;;2.20;;
26113;SDS011;13966;48.828;9.064;2022-07-06T10:53:30;4.72;;;2.40;;
26113;SDS011;13966;48.828;9.064;2022-07-06T10:56:01;4.90;;;2.70;;
26113;SDS011;13966;48.828;9.064;2022-07-06T11:01:00;6.18;;;3.05;;
26113;SDS011;13966;48.828;9.064;2022-07-06T11:06:04;5.97;;;2.28;;
26113;SDS011;13966;48.828;9.064;2022-07-06T11:08:47;5.72;;;2.33;;
26113;SDS011;13966;48.828;9.064;2022-07-06T11:11:14;4.55;;;2.50;;
26113;SDS011;13966;48.828;9.064;2022-07-06T11:13:49;5.18;;;2.58;;
26113;SDS011;13966;48.828;9.064;2022-07-06T11:16:16;5.38;;;2.08;;
26113;SDS011;13966;48.828;9.064;2022-07-06T11:18:49;5.55;;;2.38;;
26113;SDS011;13966;48.828;9.064;2022-07-06T11:21:19;6.68;;;2.45;;
26113;SDS011;13966;48.828;9.064;2022-07-06T11:23:46;4.13;;;2.20;;
26113;SDS011;13966;48.828;9.064;2022-07-06T11:26:13;5.50;;;2.28;;
26113;SDS011;13966;48.828;9.064;2022-07-06T11:28:39;3.05;;;2.13;;
26113;SDS011;13966;48.828;9.064;2022-07-06T11:31:05;5.82;;;2.55;;
26113;SDS011;13966;48.828;9.064;2022-07-06T11:33:32;5.75;;;2.50;;
26113;SDS011;13966;48.828;9.064;2022-07-06T11:36:17;4.40;;;1.88;;
26113;SDS011;13966;48.828;9.064;2022-07-06T11:38:44;5.82;;;2.00;;
26113;SDS011;13966;48.828;9.064;2022-07-06T11:41:11;4.03;;;1.75;;
26113;SDS011;13966;48.828;9.064;2022-07-06T11:43:39;4.15;;;2.00;;
26113;SDS011;13966;48.828;9.064;2022-07-06T11:46:17;5.43;;;2.38;;
26113;SDS011;13966;48.828;9.064;2022-07-06T11:48:50;6.13;;;2.63;;
26113;SDS011;13966;48.828;9.064;2022-07-06T11:51:16;5.50;;;2.22;;
26113;SDS011;13966;48.828;9.064;2022-07-06T11:53:46;6.07;;;2.42;;
26113;SDS011;13966;48.828;9.064;2022-07-06T11:56:13;4.17;;;2.07;;
26113;SDS011;13966;48.828;9.064;2022-07-06T11:58:40;5.57;;;2.38;;
26113;SDS011;13966;48.828;9.064;2022-07-06T12:01:09;4.78;;;2.33;;
26113;SDS011;13966;48.828;9.064;2022-07-06T12:03:36;6.22;;;2.00;;
26113;SDS011;13966;48.828;9.064;2022-07-06T12:06:03;4.38;;;1.98;;
26113;SDS011;13966;48.828;9.064;2022-07-06T12:08:29;5.53;;;1.73;;
26113;SDS011;13966;48.828;9.064;2022-07-06T12:10:55;6.05;;;2.47;;
26113;SDS011;13966;48.828;9.064;2022-07-06T12:13:22;6.63;;;2.40;;
26113;SDS011;13966;48.828;9.064;2022-07-06T12:15:49;6.15;;;2.47;;
26113;SDS011;13966;48.828;9.064;2022-07-06T12:18:15;4.55;;;2.10;;
26113;SDS011;13966;48.828;9.064;2022-07-06T12:20:41;6.18;;;2.35;;
26113;SDS011;13966;48.828;9.064;2022-07-06T12:23:08;4.90;;;2.40;;
26113;SDS011;13966;48.828;9.064;2022-07-06T12:25:35;7.57;;;2.47;;
26113;SDS011;13966;48.828;9.064;2022-07-06T12:28:01;6.10;;;2.53;;
26113;SDS011;13966;48.828;9.064;2022-07-06T12:30:27;8.23;;;1.77;;
26113;SDS011;13966;48.828;9.064;2022-07-06T12:35:39;9.30;;;1.90;;
26113;SDS011;13966;48.828;9.064;2022-07-06T12:38:05;6.85;;;2.22;;
26113;SDS011;13966;48.828;9.064;2022-07-06T12:40:31;3.72;;;2.00;;
26113;SDS011;13966;48.828;9.064;2022-07-06T12:42:57;4.40;;;2.10;;
26113;SDS011;13966;48.828;9.064;2022-07-06T12:45:29;4.18;;;1.80;;
26113;SDS011;13966;48.828;9.064;2022-07-06T12:47:57;6.53;;;2.10;;
26113;SDS011;13966;48.828;9.064;2022-07-06T12:50:33;3.63;;;1.53;;
26113;SDS011;13966;48.828;9.064;2022-07-06T12:52:59;6.18;;;1.92;;
26113;SDS011;13966;48.828;9.064;2022-07-06T12:55:26;3.15;;;1.60;;
26113;SDS011;13966;48.828;9.064;2022-07-06T12:57:53;6.65;;;1.80;;
26113;SDS011;13966;48.828;9.064;2022-07-06T13:00:19;3.63;;;1.30;;
26113;SDS011;13966;48.828;9.064;2022-07-06T13:02:47;4.80;;;1.40;;
26113;SDS011;13966;48.828;9.064;2022-07-06T13:05:14;5.43;;;1.33;;
26113;SDS011;13966;48.828;9.064;2022-07-06T13:07:45;2.80;;;1.25;;
26113;SDS011;13966;48.828;9.064;2022-07-06T13:10:12;5.60;;;1.13;;
26113;SDS011;13966;48.828;9.064;2022-07-06T13:12:38;3.30;;;1.33;;
26113;SDS011;13966;48.828;9.064;2022-07-06T13:15:05;5.32;;;1.33;;
26113;SDS011;13966;48.828;9.064;2022-07-06T13:17:32;3.08;;;1.40;;
26113;SDS011;13966;48.828;9.064;2022-07-06T13:19:58;5.53;;;1.30;;
26113;SDS011;13966;48.828;9.064;2022-07-06T13:22:24;2.97;;;1.25;;
26113;SDS011;13966;48.828;9.064;2022-07-06T13:24:50;2.90;;;1.38;;
26113;SDS011;13966;48.828;9.064;2022-07-06T13:27:16;3.75;;;1.45;;
26113;SDS011;13966;48.828;9.064;2022-07-06T13:29:43;4.88;;;1.00;;
26113;SDS011;13966;48.828;9.064;2022-07-06T13:32:09;3.25;;;1.23;;
26113;SDS011;13966;48.828;9.064;2022-07-06T13:34:35;4.43;;;1.30;;
26113;SDS011;13966;48.828;9.064;2022-07-06T13:37:02;4.53;;;1.02;;
26113;SDS011;13966;48.828;9.064;2022-07-06T13:39:28;3.05;;;1.25;;
26113;SDS011;13966;48.828;9.064;2022-07-06T13:41:54;2.35;;;1.08;;
26113;SDS011;13966;48.828;9.064;2022-07-06T13:44:20;5.85;;;1.15;;
26113;SDS011;13966;48.828;9.064;2022-07-06T13:46:46;4.55;;;1.10;;
26113;SDS011;13966;48.828;9.064;2022-07-06T13:49:12;4.95;;;0.98;;
26113;SDS011;13966;48.828;9.064;2022-07-06T13:51:38;2.42;;;0.98;;
26113;SDS011;13966;48.828;9.064;2022-07-06T13:54:05;2.25;;;1.00;;
26113;SDS011;13966;48.828;9.064;2022-07-06T13:56:31;3.85;;;0.88;;
26113;SDS011;13966;48.828;9.064;2022-07-06T13:58:57;3.63;;;0.90;;
26113;SDS011;13966;48.828;9.064;2022-07-06T14:01:23;4.45;;;1.10;;
26113;SDS011;13966;48.828;9.064;2022-07-06T14:03:49;4.55;;;1.00;;
26113;SDS011;13966;48.828;9.064;2022-07-06T14:06:15;2.58;;;1.10;;
26113;SDS011;13966;48.828;9.064;2022-07-06T14:08:42;4.53;;;1.10;;
26113;SDS011;13966;48.828;9.064;2022-07-06T14:11:08;2.60;;;1.00;;
26113;SDS011;13966;48.828;9.064;2022-07-06T14:13:35;5.28;;;1.33;;
26113;SDS011;13966;48.828;9.064;2022-07-06T14:16:01;2.60;;;1.02;;
26113;SDS011;13966;48.828;9.064;2022-07-06T14:18:28;2.08;;;0.90;;
26113;SDS011;13966;48.828;9.064;2022-07-06T14:20:54;4.60;;;1.20;;
26113;SDS011;13966;48.828;9.064;2022-07-06T14:23:22;2.80;;;1.05;;
26113;SDS011;13966;48.828;9.064;2022-07-06T14:25:48;3.65;;;1.00;;
26113;SDS011;13966;48.828;9.064;2022-07-06T14:28:14;2.22;;;1.02;;
26113;SDS011;13966;48.828;9.064;2022-07-06T14:30:41;2.42;;;1.23;;
26113;SDS011;13966;48.828;9.064;2022-07-06T14:33:09;1.65;;;0.90;;
26113;SDS011;13966;48.828;9.064;2022-07-06T14:35:36;2.25;;;0.90;;
26113;SDS011;13966;48.828;9.064;2022-07-06T14:38:03;1.80;;;0.98;;
26113;SDS011;13966;48.828;9.064;2022-07-06T14:40:29;2.65;;;1.08;;
26113;SDS011;13966;48.828;9.064;2022-07-06T14:42:56;1.77;;;1.05;;
26113;SDS011;13966;48.828;9.064;2022-07-06T14:45:22;2.35;;;1.10;;
26113;SDS011;13966;48.828;9.064;2022-07-06T14:47:48;3.17;;;1.17;;
26113;SDS011;13966;48.828;9.064;2022-07-06T14:50:14;2.20;;;0.90;;
26113;SDS011;13966;48.828;9.064;2022-07-06T14:52:40;1.52;;;0.90;;
26113;SDS011;13966;48.828;9.064;2022-07-06T14:55:07;2.08;;;0.85;;
26113;SDS011;13966;48.828;9.064;2022-07-06T14:57:33;1.95;;;1.00;;
26113;SDS011;13966;48.828;9.064;2022-07-06T14:59:59;2.92;;;1.00;;